createdAt,value
2019-04-25T00:00:18.847Z,979.85
2019-04-25T00:01:18.773Z,979.78
2019-04-25T00:02:18.707Z,979.76
2019-04-25T00:03:18.617Z,979.82
2019-04-25T00:04:18.563Z,979.83
2019-04-25T00:05:18.501Z,979.83
2019-04-25T00:06:18.428Z,979.79
2019-04-25T00:07:18.352Z,979.73
2019-04-25T00:08:18.280Z,979.77
2019-04-25T00:09:18.203Z,979.75
2019-04-25T00:10:18.135Z,979.71
2019-04-25T00:11:18.065Z,979.69
2019-04-25T00:12:18.005Z,979.65
2019-04-25T00:13:17.936Z,979.66
2019-04-25T00:14:17.870Z,979.71
2019-04-25T00:15:17.806Z,979.75
2019-04-25T00:16:17.714Z,979.74
2019-04-25T00:17:17.643Z,979.75
2019-04-25T00:18:17.619Z,979.73
2019-04-25T00:19:17.519Z,979.70
2019-04-25T00:20:17.436Z,979.58
2019-04-25T00:21:17.365Z,979.59
2019-04-25T00:22:17.291Z,979.44
2019-04-25T00:23:17.237Z,979.51
2019-04-25T00:24:17.166Z,979.53
2019-04-25T00:25:17.942Z,979.55
2019-04-25T00:26:17.014Z,979.52
2019-04-25T00:27:16.945Z,979.50
2019-04-25T00:28:16.883Z,979.34
2019-04-25T00:29:16.813Z,979.32
2019-04-25T00:30:16.745Z,979.41
2019-04-25T00:31:16.675Z,979.36
2019-04-25T00:32:16.590Z,979.43
2019-04-25T00:33:16.529Z,979.47
2019-04-25T00:34:16.468Z,979.44
2019-04-25T00:35:16.400Z,979.42
2019-04-25T00:36:16.323Z,979.38
2019-04-25T00:37:16.239Z,979.33
2019-04-25T00:38:16.167Z,979.27
2019-04-25T00:39:16.101Z,979.25
2019-04-25T00:40:16.045Z,979.23
2019-04-25T00:41:15.969Z,979.17
2019-04-25T00:42:15.902Z,979.16
2019-04-25T00:43:15.835Z,979.08
2019-04-25T00:44:15.751Z,978.97
2019-04-25T00:45:15.747Z,978.92
2019-04-25T00:46:15.614Z,978.87
2019-04-25T00:47:15.538Z,978.85
2019-04-25T00:48:15.480Z,978.88
2019-04-25T00:49:15.405Z,978.88
2019-04-25T00:50:15.323Z,978.92
2019-04-25T00:51:15.262Z,979.00
2019-04-25T00:52:15.200Z,979.01
2019-04-25T00:53:15.128Z,979.00
2019-04-25T00:54:15.058Z,979.02
2019-04-25T00:55:26.190Z,979.03
2019-04-25T00:56:14.903Z,978.96
2019-04-25T00:57:14.833Z,978.91
2019-04-25T00:58:14.762Z,978.95
2019-04-25T00:59:14.692Z,979.01
2019-04-25T01:00:14.639Z,978.96
2019-04-25T01:01:14.569Z,979.02
2019-04-25T01:02:14.494Z,978.94
2019-04-25T01:03:14.425Z,978.91
2019-04-25T01:04:14.340Z,978.85
2019-04-25T01:05:14.272Z,978.83
2019-04-25T01:06:14.217Z,978.78
2019-04-25T01:07:14.156Z,978.85
2019-04-25T01:08:14.062Z,978.90
2019-04-25T01:09:13.995Z,978.88
2019-04-25T01:10:13.924Z,978.87
2019-04-25T01:11:13.850Z,978.79
2019-04-25T01:12:13.796Z,978.76
2019-04-25T01:13:13.735Z,978.77
2019-04-25T01:14:13.655Z,978.75
2019-04-25T01:15:13.584Z,978.69
2019-04-25T01:16:13.505Z,978.62
2019-04-25T01:17:13.436Z,978.62
2019-04-25T01:18:13.362Z,978.67
2019-04-25T01:19:13.496Z,978.66
2019-04-25T01:20:13.962Z,978.68
2019-04-25T01:21:14.135Z,978.66
2019-04-25T01:22:14.454Z,978.62
2019-04-25T01:23:13.769Z,978.60
2019-04-25T01:24:14.136Z,978.58
2019-04-25T01:25:13.831Z,978.56
2019-04-25T01:26:13.242Z,978.56
2019-04-25T01:27:13.539Z,978.55
2019-04-25T01:28:13.143Z,978.51
2019-04-25T01:29:13.576Z,978.47
2019-04-25T01:30:13.821Z,978.50
2019-04-25T01:31:13.746Z,978.52
2019-04-25T01:32:13.854Z,978.48
2019-04-25T01:33:13.554Z,978.35
2019-04-25T01:34:12.254Z,978.34
2019-04-25T01:35:13.868Z,978.32
2019-04-25T01:36:13.371Z,978.34
2019-04-25T01:37:13.779Z,978.34
2019-04-25T01:38:13.728Z,978.33
2019-04-25T01:39:11.901Z,978.27
2019-04-25T01:40:11.840Z,978.19
2019-04-25T01:41:11.768Z,978.21
2019-04-25T01:42:11.709Z,978.25
2019-04-25T01:43:11.632Z,978.20
2019-04-25T01:44:11.551Z,978.18
2019-04-25T01:45:11.481Z,978.15
2019-04-25T01:46:13.314Z,978.10
2019-04-25T01:47:11.347Z,978.19
2019-04-25T01:48:11.302Z,978.12
2019-04-25T01:49:11.219Z,978.12
2019-04-25T01:50:11.152Z,978.13
2019-04-25T01:51:11.074Z,978.10
2019-04-25T01:52:10.996Z,978.14
2019-04-25T01:53:10.926Z,978.10
2019-04-25T01:54:10.871Z,978.11
2019-04-25T01:55:10.799Z,978.16
2019-04-25T01:56:10.717Z,978.14
2019-04-25T01:57:10.644Z,978.11
2019-04-25T01:58:10.580Z,978.11
2019-04-25T01:59:10.518Z,978.13
2019-04-25T02:00:10.474Z,978.10
2019-04-25T02:01:10.382Z,978.03
2019-04-25T02:02:10.297Z,978.06
2019-04-25T02:03:10.242Z,978.07
2019-04-25T02:04:10.174Z,978.07
2019-04-25T02:05:10.103Z,978.10
2019-04-25T02:06:10.037Z,978.09
2019-04-25T02:07:09.962Z,978.10
2019-04-25T02:08:09.883Z,978.15
2019-04-25T02:09:09.819Z,978.13
2019-04-25T02:10:09.756Z,978.17
2019-04-25T02:11:09.687Z,978.11
2019-04-25T02:12:09.606Z,978.10
2019-04-25T02:13:09.531Z,978.10
2019-04-25T02:14:09.488Z,978.07
2019-04-25T02:15:09.398Z,978.10
2019-04-25T02:16:09.343Z,978.15
2019-04-25T02:17:09.267Z,978.12
2019-04-25T02:18:09.202Z,978.11
2019-04-25T02:19:09.139Z,978.13
2019-04-25T02:20:09.054Z,978.10
2019-04-25T02:21:08.982Z,978.08
2019-04-25T02:22:08.910Z,978.06
2019-04-25T02:23:08.840Z,978.12
2019-04-25T02:24:08.929Z,978.16
2019-04-25T02:25:08.721Z,978.08
2019-04-25T02:26:15.683Z,978.15
2019-04-25T02:27:08.566Z,978.12
2019-04-25T02:28:08.511Z,978.17
2019-04-25T02:29:08.436Z,978.21
2019-04-25T02:30:08.370Z,978.19
2019-04-25T02:31:08.909Z,978.14
2019-04-25T02:32:09.185Z,978.11
2019-04-25T02:33:09.238Z,978.01
2019-04-25T02:34:08.775Z,978.02
2019-04-25T02:35:09.367Z,978.04
2019-04-25T02:36:08.885Z,978.04
2019-04-25T02:37:09.337Z,978.10
2019-04-25T02:38:09.021Z,978.11
2019-04-25T02:39:08.942Z,978.10
2019-04-25T02:40:08.473Z,978.04
2019-04-25T02:41:09.047Z,978.07
2019-04-25T02:42:08.571Z,978.03
2019-04-25T02:43:08.234Z,978.00
2019-04-25T02:44:09.898Z,978.01
2019-04-25T02:45:08.665Z,978.02
2019-04-25T02:46:08.085Z,978.01
2019-04-25T02:47:08.431Z,978.02
2019-04-25T02:48:07.290Z,978.04
2019-04-25T02:49:09.471Z,978.15
2019-04-25T02:50:08.985Z,978.21
2019-04-25T02:51:07.593Z,978.29
2019-04-25T02:52:09.750Z,978.44
2019-04-25T02:53:07.436Z,978.68
2019-04-25T02:54:08.114Z,979.20
2019-04-25T02:55:10.542Z,979.69
2019-04-25T02:56:26.122Z,979.63
2019-04-25T02:57:08.177Z,979.63
2019-04-25T02:58:10.054Z,979.69
2019-04-25T02:59:08.803Z,979.69
2019-04-25T03:00:08.525Z,979.76
2019-04-25T03:01:16.470Z,979.83
2019-04-25T03:02:08.757Z,979.91
2019-04-25T03:03:07.496Z,979.85
2019-04-25T03:04:10.666Z,979.80
2019-04-25T03:05:09.437Z,979.66
2019-04-25T03:06:07.948Z,979.64
2019-04-25T03:07:08.156Z,979.65
2019-04-25T03:08:09.981Z,979.72
2019-04-25T03:09:06.469Z,979.81
2019-04-25T03:10:07.703Z,979.82
2019-04-25T03:11:07.379Z,979.77
2019-04-25T03:12:07.545Z,979.72
2019-04-25T03:13:10.279Z,979.62
2019-04-25T03:14:08.230Z,979.58
2019-04-25T03:15:07.207Z,979.62
2019-04-25T03:16:07.672Z,979.67
2019-04-25T03:17:08.179Z,979.65
2019-04-25T03:18:10.371Z,979.73
2019-04-25T03:19:06.740Z,979.88
2019-04-25T03:20:09.122Z,979.93
2019-04-25T03:21:06.207Z,979.92
2019-04-25T03:22:08.370Z,979.94
2019-04-25T03:23:07.270Z,979.92
2019-04-25T03:24:09.095Z,979.89
2019-04-25T03:25:08.795Z,979.96
2019-04-25T03:26:05.188Z,979.96
2019-04-25T03:27:05.239Z,980.01
2019-04-25T03:28:05.265Z,980.02
2019-04-25T03:29:05.244Z,980.04
2019-04-25T03:30:08.545Z,980.04
2019-04-25T03:31:09.294Z,980.07
2019-04-25T03:32:09.080Z,980.10
2019-04-25T03:33:09.611Z,980.06
2019-04-25T03:34:09.522Z,980.14
2019-04-25T03:35:05.718Z,980.17
2019-04-25T03:36:05.529Z,980.22
2019-04-25T03:37:05.269Z,980.24
2019-04-25T03:38:04.529Z,980.25
2019-04-25T03:39:04.265Z,980.24
2019-04-25T03:40:04.514Z,980.25
2019-04-25T03:41:04.805Z,980.25
2019-04-25T03:42:04.907Z,980.25
2019-04-25T03:43:05.070Z,980.22
2019-04-25T03:44:05.310Z,980.24
2019-04-25T03:45:04.711Z,980.26
2019-04-25T03:46:04.959Z,980.25
2019-04-25T03:47:05.266Z,980.26
2019-04-25T03:48:05.222Z,980.20
2019-04-25T03:49:04.925Z,980.30
2019-04-25T03:50:05.743Z,980.25
2019-04-25T03:51:04.605Z,980.28
2019-04-25T03:52:04.391Z,980.28
2019-04-25T03:53:04.537Z,980.33
2019-04-25T03:54:04.489Z,980.34
2019-04-25T03:55:05.111Z,980.34
2019-04-25T03:56:04.766Z,980.40
2019-04-25T03:57:04.760Z,980.41
2019-04-25T03:58:04.660Z,980.40
2019-04-25T03:59:04.819Z,980.43
2019-04-25T04:00:03.613Z,980.45
2019-04-25T04:01:03.924Z,980.50
2019-04-25T04:02:03.094Z,980.47
2019-04-25T04:03:03.927Z,980.44
2019-04-25T04:04:04.321Z,980.50
2019-04-25T04:05:04.589Z,980.53
2019-04-25T04:06:01.718Z,980.56
2019-04-25T04:07:01.638Z,980.51
2019-04-25T04:08:03.343Z,980.44
2019-04-25T04:09:01.494Z,980.38
2019-04-25T04:10:01.428Z,980.42
2019-04-25T04:11:01.374Z,980.46
2019-04-25T04:12:01.302Z,980.47
2019-04-25T04:13:01.235Z,980.48
2019-04-25T04:14:01.163Z,980.51
2019-04-25T04:15:01.083Z,980.51
2019-04-25T04:16:01.014Z,980.53
2019-04-25T04:17:00.964Z,980.50
2019-04-25T04:18:00.885Z,980.50
2019-04-25T04:19:00.806Z,980.57
2019-04-25T04:20:00.739Z,980.65
2019-04-25T04:21:00.665Z,980.67
2019-04-25T04:22:00.592Z,980.70
2019-04-25T04:23:00.538Z,980.69
2019-04-25T04:24:00.469Z,980.75
2019-04-25T04:25:00.399Z,980.83
2019-04-25T04:26:00.335Z,980.91
2019-04-25T04:27:03.696Z,980.99
2019-04-25T04:28:00.180Z,981.04
2019-04-25T04:29:00.110Z,981.07
2019-04-25T04:30:00.062Z,981.04
2019-04-25T04:30:59.982Z,981.05
2019-04-25T04:31:59.910Z,981.13
2019-04-25T04:32:59.828Z,981.15
2019-04-25T04:33:59.758Z,981.16
2019-04-25T04:34:59.705Z,981.07
2019-04-25T04:35:59.629Z,981.06
2019-04-25T04:36:59.566Z,981.03
2019-04-25T04:37:59.535Z,981.02
2019-04-25T04:38:59.410Z,981.05
2019-04-25T04:39:59.346Z,981.06
2019-04-25T04:40:59.286Z,981.08
2019-04-25T04:41:59.226Z,981.09
2019-04-25T04:42:59.135Z,981.08
2019-04-25T04:43:59.063Z,981.10
2019-04-25T04:44:58.992Z,981.13
2019-04-25T04:45:58.924Z,981.13
2019-04-25T04:46:58.865Z,981.15
2019-04-25T04:47:58.799Z,981.15
2019-04-25T04:48:58.712Z,981.10
2019-04-25T04:49:58.643Z,981.12
2019-04-25T04:50:58.587Z,981.19
2019-04-25T04:51:58.518Z,981.21
2019-04-25T04:52:58.448Z,981.23
2019-04-25T04:53:58.373Z,981.22
2019-04-25T04:55:06.292Z,981.24
2019-04-25T04:55:58.228Z,981.29
2019-04-25T04:56:58.153Z,981.34
2019-04-25T04:57:58.093Z,981.39
2019-04-25T04:58:58.028Z,981.44
2019-04-25T04:59:57.958Z,981.42
2019-04-25T05:00:57.888Z,981.43
2019-04-25T05:01:57.814Z,981.49
2019-04-25T05:02:57.743Z,981.50
2019-04-25T05:03:57.666Z,981.49
2019-04-25T05:04:57.608Z,981.52
2019-04-25T05:05:57.539Z,981.58
2019-04-25T05:06:57.462Z,981.69
2019-04-25T05:07:57.389Z,981.77
2019-04-25T05:08:57.314Z,981.79
2019-04-25T05:09:57.246Z,981.82
2019-04-25T05:10:57.414Z,981.86
2019-04-25T05:11:57.122Z,981.84
2019-04-25T05:12:57.051Z,981.89
2019-04-25T05:13:56.983Z,981.93
2019-04-25T05:14:56.902Z,981.94
2019-04-25T05:15:56.830Z,982.01
2019-04-25T05:16:56.758Z,982.00
2019-04-25T05:17:56.686Z,982.00
2019-04-25T05:18:56.652Z,981.98
2019-04-25T05:19:56.557Z,981.98
2019-04-25T05:20:56.482Z,982.01
2019-04-25T05:21:56.412Z,982.03
2019-04-25T05:22:56.358Z,982.04
2019-04-25T05:23:56.295Z,982.04
2019-04-25T05:24:56.219Z,982.00
2019-04-25T05:25:56.181Z,982.02
2019-04-25T05:26:56.063Z,981.95
2019-04-25T05:28:02.524Z,981.90
2019-04-25T05:28:55.932Z,981.88
2019-04-25T05:29:55.852Z,981.87
2019-04-25T05:30:55.797Z,981.86
2019-04-25T05:31:55.721Z,981.87
2019-04-25T05:32:55.664Z,981.86
2019-04-25T05:33:55.587Z,981.89
2019-04-25T05:34:55.502Z,981.94
2019-04-25T05:35:55.434Z,982.00
2019-04-25T05:36:55.381Z,982.05
2019-04-25T05:37:55.307Z,982.12
2019-04-25T05:38:55.228Z,982.19
2019-04-25T05:39:55.152Z,982.21
2019-04-25T05:40:55.086Z,982.19
2019-04-25T05:41:55.037Z,982.24
2019-04-25T05:42:54.965Z,982.32
2019-04-25T05:43:54.889Z,982.33
2019-04-25T05:44:54.806Z,982.31
2019-04-25T05:45:54.736Z,982.37
2019-04-25T05:46:54.679Z,982.37
2019-04-25T05:47:54.612Z,982.36
2019-04-25T05:48:54.541Z,982.42
2019-04-25T05:49:54.468Z,982.44
2019-04-25T05:50:54.390Z,982.45
2019-04-25T05:51:54.316Z,982.45
2019-04-25T05:52:54.263Z,982.43
2019-04-25T05:53:55.178Z,982.38
2019-04-25T05:54:54.117Z,982.42
2019-04-25T05:55:54.142Z,982.41
2019-04-25T05:56:53.968Z,982.49
2019-04-25T05:57:53.902Z,982.53
2019-04-25T05:58:53.841Z,982.56
2019-04-25T05:59:53.800Z,982.65
2019-04-25T06:00:54.230Z,982.63
2019-04-25T06:01:53.849Z,982.68
2019-04-25T06:02:53.572Z,982.75
2019-04-25T06:03:53.669Z,982.66
2019-04-25T06:04:53.607Z,982.74
2019-04-25T06:05:53.430Z,982.75
2019-04-25T06:06:55.155Z,982.77
2019-04-25T06:07:54.329Z,982.79
2019-04-25T06:08:54.189Z,982.82
2019-04-25T06:09:54.433Z,982.86
2019-04-25T06:10:53.825Z,982.88
2019-04-25T06:11:53.368Z,982.90
2019-04-25T06:12:53.651Z,982.96
2019-04-25T06:13:53.213Z,983.05
2019-04-25T06:14:52.917Z,983.06
2019-04-25T06:15:53.374Z,983.11
2019-04-25T06:16:53.628Z,983.11
2019-04-25T06:17:53.355Z,983.15
2019-04-25T06:18:52.448Z,983.14
2019-04-25T06:19:53.378Z,983.12
2019-04-25T06:20:52.308Z,983.20
2019-04-25T06:21:53.502Z,983.18
2019-04-25T06:22:53.371Z,983.20
2019-04-25T06:23:52.112Z,983.21
2019-04-25T06:24:52.030Z,983.27
2019-04-25T06:25:53.711Z,983.23
2019-04-25T06:26:51.907Z,983.25
2019-04-25T06:27:58.619Z,983.27
2019-04-25T06:28:57.748Z,983.33
2019-04-25T06:29:58.073Z,983.32
2019-04-25T06:30:51.618Z,983.30
2019-04-25T06:32:03.378Z,983.30
2019-04-25T06:32:52.893Z,983.32
2019-04-25T06:33:51.456Z,983.25
2019-04-25T06:34:51.354Z,983.24
2019-04-25T06:35:51.284Z,983.26
2019-04-25T06:36:51.216Z,983.30
2019-04-25T06:37:51.144Z,983.35
2019-04-25T06:38:51.063Z,983.37
2019-04-25T06:39:50.994Z,983.43
2019-04-25T06:40:50.934Z,983.49
2019-04-25T06:41:50.864Z,983.49
2019-04-25T06:42:50.789Z,983.53
2019-04-25T06:43:50.714Z,983.62
2019-04-25T06:44:50.651Z,983.59
2019-04-25T06:45:55.480Z,983.64
2019-04-25T06:46:53.534Z,983.63
2019-04-25T06:47:50.450Z,983.69
2019-04-25T06:48:50.371Z,983.67
2019-04-25T06:49:50.300Z,983.69
2019-04-25T06:50:50.242Z,983.78
2019-04-25T06:51:50.176Z,983.81
2019-04-25T06:52:50.110Z,983.79
2019-04-25T06:53:50.046Z,983.78
2019-04-25T06:54:49.958Z,983.74
2019-04-25T06:55:49.884Z,983.72
2019-04-25T06:56:49.832Z,983.75
2019-04-25T06:57:49.765Z,983.80
2019-04-25T06:58:49.683Z,983.73
2019-04-25T06:59:49.614Z,983.73
2019-04-25T07:00:58.181Z,983.74
2019-04-25T07:01:49.478Z,983.68
2019-04-25T07:02:49.420Z,983.69
2019-04-25T07:03:49.356Z,983.64
2019-04-25T07:04:51.487Z,983.63
2019-04-25T07:05:49.223Z,983.61
2019-04-25T07:06:49.515Z,983.65
2019-04-25T07:07:49.068Z,983.66
2019-04-25T07:08:48.996Z,983.67
2019-04-25T07:09:48.970Z,983.60
2019-04-25T07:10:48.869Z,983.58
2019-04-25T07:11:48.805Z,983.51
2019-04-25T07:12:48.721Z,983.45
2019-04-25T07:13:48.650Z,983.48
2019-04-25T07:14:48.592Z,983.41
2019-04-25T07:15:48.527Z,983.38
2019-04-25T07:16:48.460Z,983.40
2019-04-25T07:17:48.391Z,983.51
2019-04-25T07:18:48.333Z,983.64
2019-04-25T07:19:48.240Z,983.66
2019-04-25T07:20:48.170Z,983.69
2019-04-25T07:21:48.105Z,983.73
2019-04-25T07:22:48.049Z,983.76
2019-04-25T07:23:47.986Z,983.71
2019-04-25T07:24:47.913Z,983.70
2019-04-25T07:25:47.845Z,983.68
2019-04-25T07:26:47.762Z,983.69
2019-04-25T07:27:47.692Z,983.72
2019-04-25T07:28:47.633Z,983.83
2019-04-25T07:29:47.569Z,983.89
2019-04-25T07:30:51.686Z,983.93
2019-04-25T07:31:47.418Z,983.91
2019-04-25T07:32:47.348Z,983.88
2019-04-25T07:33:47.281Z,983.83
2019-04-25T07:34:47.229Z,983.74
2019-04-25T07:35:47.156Z,983.76
2019-04-25T07:36:47.096Z,983.71
2019-04-25T07:37:47.014Z,983.73
2019-04-25T07:38:46.940Z,983.70
2019-04-25T07:39:46.872Z,983.72
2019-04-25T07:40:46.799Z,983.71
2019-04-25T07:41:46.727Z,983.71
2019-04-25T07:42:46.678Z,983.70
2019-04-25T07:43:46.605Z,983.66
2019-04-25T07:44:52.555Z,983.69
2019-04-25T07:45:46.453Z,983.78
2019-04-25T07:46:46.400Z,983.85
2019-04-25T07:47:46.339Z,983.89
2019-04-25T07:48:46.268Z,983.94
2019-04-25T07:49:46.198Z,983.93
2019-04-25T07:50:46.111Z,983.97
2019-04-25T07:51:46.047Z,984.02
2019-04-25T07:52:45.993Z,984.07
2019-04-25T07:53:45.921Z,984.06
2019-04-25T07:54:45.839Z,984.08
2019-04-25T07:55:45.774Z,984.11
2019-04-25T07:56:45.702Z,984.09
2019-04-25T07:57:45.637Z,984.08
2019-04-25T07:58:52.228Z,984.05
2019-04-25T07:59:45.509Z,984.06
2019-04-25T08:00:45.429Z,984.08
2019-04-25T08:01:45.363Z,984.12
2019-04-25T08:02:45.317Z,984.16
2019-04-25T08:03:45.240Z,984.14
2019-04-25T08:04:45.185Z,984.17
2019-04-25T08:05:45.108Z,984.16
2019-04-25T08:06:45.023Z,984.19
2019-04-25T08:07:44.963Z,984.23
2019-04-25T08:08:44.887Z,984.27
2019-04-25T08:09:44.819Z,984.27
2019-04-25T08:10:45.352Z,984.27
2019-04-25T08:11:44.710Z,984.30
2019-04-25T08:12:47.332Z,984.34
2019-04-25T08:13:44.558Z,984.34
2019-04-25T08:14:45.951Z,984.34
2019-04-25T08:15:44.416Z,984.29
2019-04-25T08:16:44.354Z,984.34
2019-04-25T08:17:44.291Z,984.39
2019-04-25T08:18:44.206Z,984.34
2019-04-25T08:19:44.317Z,984.29
2019-04-25T08:20:44.077Z,984.37
2019-04-25T08:21:45.145Z,984.38
2019-04-25T08:22:55.811Z,984.42
2019-04-25T08:23:43.884Z,984.41
2019-04-25T08:24:44.062Z,984.41
2019-04-25T08:25:43.750Z,984.40
2019-04-25T08:26:43.769Z,984.44
2019-04-25T08:27:44.980Z,984.38
2019-04-25T08:28:54.443Z,984.40
2019-04-25T08:29:45.154Z,984.35
2019-04-25T08:30:44.910Z,984.38
2019-04-25T08:31:44.027Z,984.38
2019-04-25T08:32:44.050Z,984.38
2019-04-25T08:33:46.361Z,984.38
2019-04-25T08:34:44.644Z,984.42
2019-04-25T08:36:03.018Z,984.40
2019-04-25T08:36:45.396Z,984.40
2019-04-25T08:37:44.125Z,984.46
2019-04-25T08:38:44.564Z,984.45
2019-04-25T08:39:44.905Z,984.44
2019-04-25T08:40:44.128Z,984.44
2019-04-25T08:41:45.428Z,984.44
2019-04-25T08:42:44.189Z,984.44
2019-04-25T08:43:43.657Z,984.45
2019-04-25T08:44:43.759Z,984.43
2019-04-25T08:45:44.133Z,984.39
2019-04-25T08:46:44.233Z,984.35
2019-04-25T08:47:43.818Z,984.35
2019-04-25T08:48:42.217Z,984.32
2019-04-25T08:49:44.129Z,984.32
2019-04-25T08:50:42.883Z,984.40
2019-04-25T08:51:42.153Z,984.40
2019-04-25T08:52:42.848Z,984.42
2019-04-25T08:53:41.867Z,984.43
2019-04-25T08:54:45.733Z,984.43
2019-04-25T08:55:41.865Z,984.47
2019-04-25T08:56:42.443Z,984.47
2019-04-25T08:57:42.515Z,984.48
2019-04-25T08:58:43.324Z,984.47
2019-04-25T08:59:47.224Z,984.48
2019-04-25T09:00:42.440Z,984.44
2019-04-25T09:01:41.990Z,984.45
2019-04-25T09:02:41.279Z,984.44
2019-04-25T09:03:42.186Z,984.46
2019-04-25T09:04:41.145Z,984.43
2019-04-25T09:05:41.105Z,984.41
2019-04-25T09:06:41.005Z,984.51
2019-04-25T09:07:40.935Z,984.50
2019-04-25T09:08:41.109Z,984.53
2019-04-25T09:09:41.169Z,984.56
2019-04-25T09:10:41.284Z,984.57
2019-04-25T09:11:41.384Z,984.63
2019-04-25T09:12:40.604Z,984.64
2019-04-25T09:13:40.966Z,984.63
2019-04-25T09:14:41.049Z,984.63
2019-04-25T09:15:41.274Z,984.59
2019-04-25T09:16:40.327Z,984.56
2019-04-25T09:17:40.258Z,984.61
2019-04-25T09:18:40.285Z,984.59
2019-04-25T09:19:40.134Z,984.58
2019-04-25T09:20:42.038Z,984.65
2019-04-25T09:21:42.465Z,984.62
2019-04-25T09:22:39.987Z,984.59
2019-04-25T09:23:39.887Z,984.68
2019-04-25T09:24:40.139Z,984.65
2019-04-25T09:25:40.652Z,984.63
2019-04-25T09:26:40.099Z,984.67
2019-04-25T09:27:40.689Z,984.65
2019-04-25T09:28:40.827Z,984.65
2019-04-25T09:29:39.459Z,984.73
2019-04-25T09:30:40.197Z,984.67
2019-04-25T09:31:40.513Z,984.68
2019-04-25T09:32:39.921Z,984.69
2019-04-25T09:33:39.205Z,984.70
2019-04-25T09:34:39.117Z,984.67
2019-04-25T09:35:39.569Z,984.68
2019-04-25T09:36:39.917Z,984.66
2019-04-25T09:37:38.938Z,984.68
2019-04-25T09:38:38.880Z,984.63
2019-04-25T09:39:39.004Z,984.65
2019-04-25T09:40:39.495Z,984.67
2019-04-25T09:41:38.659Z,984.60
2019-04-25T09:42:39.381Z,984.58
2019-04-25T09:43:38.532Z,984.52
2019-04-25T09:44:39.315Z,984.48
2019-04-25T09:45:38.394Z,984.52
2019-04-25T09:46:38.315Z,984.51
2019-04-25T09:47:39.199Z,984.53
2019-04-25T09:48:38.185Z,984.61
2019-04-25T09:49:39.058Z,984.55
2019-04-25T09:50:38.631Z,984.55
2019-04-25T09:51:38.003Z,984.53
2019-04-25T09:52:37.930Z,984.49
2019-04-25T09:53:43.238Z,984.49
2019-04-25T09:54:38.055Z,984.50
2019-04-25T09:55:37.727Z,984.52
2019-04-25T09:56:38.296Z,984.44
2019-04-25T09:57:38.840Z,984.46
2019-04-25T09:58:37.956Z,984.43
2019-04-25T09:59:37.596Z,984.40
2019-04-25T10:00:38.164Z,984.38
2019-04-25T10:01:37.918Z,984.42
2019-04-25T10:02:38.171Z,984.33
2019-04-25T10:03:37.184Z,984.29
2019-04-25T10:04:37.865Z,984.35
2019-04-25T10:05:37.175Z,984.32
2019-04-25T10:06:37.307Z,984.32
2019-04-25T10:07:37.306Z,984.37
2019-04-25T10:08:37.026Z,984.34
2019-04-25T10:09:36.784Z,984.37
2019-04-25T10:10:36.731Z,984.41
2019-04-25T10:11:38.211Z,984.36
2019-04-25T10:12:37.362Z,984.28
2019-04-25T10:13:36.524Z,984.23
2019-04-25T10:14:36.761Z,984.31
2019-04-25T10:15:37.476Z,984.33
2019-04-25T10:16:36.314Z,984.35
2019-04-25T10:17:37.596Z,984.38
2019-04-25T10:18:37.041Z,984.40
2019-04-25T10:19:37.605Z,984.38
2019-04-25T10:20:37.569Z,984.34
2019-04-25T10:21:37.949Z,984.40
2019-04-25T10:22:35.915Z,984.39
2019-04-25T10:23:35.847Z,984.35
2019-04-25T10:24:35.791Z,984.28
2019-04-25T10:25:35.734Z,984.26
2019-04-25T10:26:35.657Z,984.24
2019-04-25T10:27:35.582Z,984.26
2019-04-25T10:28:35.519Z,984.30
2019-04-25T10:29:44.848Z,984.29
2019-04-25T10:30:35.397Z,984.25
2019-04-25T10:31:35.329Z,984.30
2019-04-25T10:32:35.256Z,984.30
2019-04-25T10:33:35.182Z,984.31
2019-04-25T10:34:35.155Z,984.32
2019-04-25T10:35:46.733Z,984.29
2019-04-25T10:36:34.998Z,984.33
2019-04-25T10:37:35.311Z,984.29
2019-04-25T10:38:35.139Z,984.27
2019-04-25T10:39:34.783Z,984.32
2019-04-25T10:40:34.777Z,984.33
2019-04-25T10:41:35.912Z,984.33
2019-04-25T10:42:34.588Z,984.33
2019-04-25T10:43:34.522Z,984.45
2019-04-25T10:44:34.456Z,984.45
2019-04-25T10:45:34.387Z,984.48
2019-04-25T10:46:34.345Z,984.45
2019-04-25T10:47:35.318Z,984.48
2019-04-25T10:48:34.467Z,984.48
2019-04-25T10:49:34.530Z,984.43
2019-04-25T10:50:34.199Z,984.35
2019-04-25T10:51:34.319Z,984.36
2019-04-25T10:52:33.922Z,984.31
2019-04-25T10:53:34.024Z,984.31
2019-04-25T10:54:35.201Z,984.23
2019-04-25T10:55:33.733Z,984.32
2019-04-25T10:56:33.660Z,984.29
2019-04-25T10:57:34.049Z,984.28
2019-04-25T10:58:35.261Z,984.27
2019-04-25T10:59:33.469Z,984.27
2019-04-25T11:00:34.253Z,984.25
2019-04-25T11:01:33.912Z,984.21
2019-04-25T11:02:33.930Z,984.21
2019-04-25T11:03:33.731Z,984.20
2019-04-25T11:04:33.136Z,984.19
2019-04-25T11:05:34.308Z,984.22
2019-04-25T11:06:33.619Z,984.27
2019-04-25T11:07:33.924Z,984.28
2019-04-25T11:08:34.060Z,984.20
2019-04-25T11:09:34.253Z,984.10
2019-04-25T11:10:34.338Z,984.13
2019-04-25T11:11:34.077Z,984.12
2019-04-25T11:12:33.822Z,984.09
2019-04-25T11:13:33.791Z,984.11
2019-04-25T11:14:34.035Z,984.07
2019-04-25T11:15:33.902Z,984.05
2019-04-25T11:16:33.389Z,984.06
2019-04-25T11:17:33.884Z,984.06
2019-04-25T11:18:33.916Z,984.04
2019-04-25T11:19:33.876Z,983.94
2019-04-25T11:20:33.705Z,983.95
2019-04-25T11:21:33.303Z,983.91
2019-04-25T11:22:31.950Z,983.94
2019-04-25T11:23:31.891Z,983.86
2019-04-25T11:24:31.825Z,983.86
2019-04-25T11:25:31.755Z,983.81
2019-04-25T11:26:34.437Z,983.85
2019-04-25T11:27:31.628Z,983.82
2019-04-25T11:28:31.563Z,983.80
2019-04-25T11:29:31.492Z,983.80
2019-04-25T11:30:31.413Z,983.83
2019-04-25T11:31:31.352Z,983.80
2019-04-25T11:32:31.286Z,983.81
2019-04-25T11:33:31.216Z,983.75
2019-04-25T11:34:31.178Z,983.81
2019-04-25T11:35:31.096Z,983.74
2019-04-25T11:36:31.031Z,983.76
2019-04-25T11:37:30.987Z,983.71
2019-04-25T11:38:30.995Z,983.75
2019-04-25T11:39:30.817Z,983.75
2019-04-25T11:40:30.756Z,983.70
2019-04-25T11:41:30.685Z,983.79
2019-04-25T11:42:30.633Z,983.82
2019-04-25T11:43:30.565Z,983.80
2019-04-25T11:44:30.496Z,983.76
2019-04-25T11:45:30.422Z,983.79
2019-04-25T11:46:30.379Z,983.81
2019-04-25T11:47:30.302Z,983.81
2019-04-25T11:48:30.230Z,983.83
2019-04-25T11:49:30.173Z,983.77
2019-04-25T11:50:30.090Z,983.73
2019-04-25T11:51:30.022Z,983.75
2019-04-25T11:52:30.420Z,983.69
2019-04-25T11:53:29.893Z,983.74
2019-04-25T11:54:29.845Z,983.71
2019-04-25T11:55:29.773Z,983.77
2019-04-25T11:56:29.711Z,983.82
2019-04-25T11:57:29.637Z,983.80
2019-04-25T11:58:29.560Z,983.75
2019-04-25T11:59:29.496Z,983.74
2019-04-25T12:00:29.439Z,983.75
2019-04-25T12:01:29.388Z,983.80
2019-04-25T12:02:29.300Z,983.84
2019-04-25T12:03:29.234Z,983.79
2019-04-25T12:04:29.159Z,983.85
2019-04-25T12:05:29.097Z,983.85
2019-04-25T12:06:29.047Z,983.90
2019-04-25T12:07:28.983Z,983.92
2019-04-25T12:08:28.908Z,983.93
2019-04-25T12:09:28.876Z,983.95
2019-04-25T12:10:28.779Z,984.03
2019-04-25T12:11:28.714Z,984.08
2019-04-25T12:12:28.645Z,984.06
2019-04-25T12:13:28.577Z,984.09
2019-04-25T12:14:28.504Z,984.13
2019-04-25T12:15:28.434Z,984.14
2019-04-25T12:16:28.381Z,984.18
2019-04-25T12:17:28.352Z,984.18
2019-04-25T12:18:28.230Z,984.18
2019-04-25T12:19:35.721Z,984.17
2019-04-25T12:20:28.106Z,984.10
2019-04-25T12:21:28.035Z,984.15
2019-04-25T12:22:27.977Z,984.20
2019-04-25T12:23:27.913Z,984.20
2019-04-25T12:24:27.847Z,984.20
2019-04-25T12:25:27.779Z,984.20
2019-04-25T12:26:27.722Z,984.22
2019-04-25T12:27:27.630Z,984.27